createdAt,value
2018-03-29T00:00:17.581Z,3.30
2018-03-29T00:02:45.100Z,3.30
2018-03-29T00:05:12.574Z,3.20
2018-03-29T00:07:40.045Z,3.30
2018-03-29T00:10:07.548Z,3.30
2018-03-29T00:12:35.010Z,3.30
2018-03-29T00:15:02.484Z,3.30
2018-03-29T00:17:29.952Z,3.30
2018-03-29T00:19:57.419Z,3.30
2018-03-29T00:22:24.893Z,3.30
2018-03-29T00:24:52.383Z,3.30
2018-03-29T00:27:20.626Z,3.30
2018-03-29T00:29:48.090Z,3.30
2018-03-29T00:32:15.562Z,3.20
2018-03-29T00:34:43.058Z,3.20
2018-03-29T00:37:10.533Z,3.20
2018-03-29T00:39:38.010Z,3.20
2018-03-29T00:42:05.485Z,3.20
2018-03-29T00:44:32.968Z,3.30
2018-03-29T00:47:00.459Z,3.20
2018-03-29T00:49:27.926Z,3.20
2018-03-29T00:51:55.429Z,3.20
2018-03-29T00:54:23.661Z,3.10
2018-03-29T00:56:51.142Z,3.10
2018-03-29T00:59:18.632Z,3.10
2018-03-29T01:01:46.912Z,3.10
2018-03-29T01:04:14.400Z,3.10
2018-03-29T01:06:41.877Z,3.10
2018-03-29T01:09:09.358Z,3.10
2018-03-29T01:11:37.616Z,3.00
2018-03-29T01:14:05.100Z,3.10
2018-03-29T01:16:32.591Z,3.10
2018-03-29T01:19:00.065Z,3.10
2018-03-29T01:21:27.529Z,3.00
2018-03-29T01:23:55.026Z,3.10
2018-03-29T01:26:23.265Z,3.10
2018-03-29T01:28:50.822Z,3.00
2018-03-29T01:31:18.296Z,2.90
2018-03-29T01:33:45.777Z,3.00
2018-03-29T01:36:13.256Z,3.00
2018-03-29T01:38:40.732Z,3.00
2018-03-29T01:41:08.228Z,3.00
2018-03-29T01:43:35.716Z,3.00
2018-03-29T01:46:03.198Z,3.00
2018-03-29T01:48:30.708Z,3.00
2018-03-29T01:50:58.180Z,3.00
2018-03-29T01:53:26.491Z,3.00
2018-03-29T01:55:53.950Z,3.00
2018-03-29T01:58:21.429Z,3.10
2018-03-29T02:00:48.959Z,2.90
2018-03-29T02:03:16.440Z,3.10
2018-03-29T02:05:43.929Z,3.10
2018-03-29T02:08:11.536Z,3.10
2018-03-29T02:10:39.036Z,3.00
2018-03-29T02:13:06.523Z,3.10
2018-03-29T02:15:34.788Z,3.00
2018-03-29T02:18:03.052Z,3.10
2018-03-29T02:20:30.530Z,3.10
2018-03-29T02:22:58.019Z,3.00
2018-03-29T02:25:25.516Z,3.10
2018-03-29T02:27:53.022Z,3.10
2018-03-29T02:30:21.427Z,3.10
2018-03-29T02:32:48.885Z,3.10
2018-03-29T02:35:16.433Z,3.00
2018-03-29T02:37:43.929Z,3.00
2018-03-29T02:40:11.419Z,3.00
2018-03-29T02:42:38.950Z,3.00
2018-03-29T02:45:06.426Z,3.00
2018-03-29T02:47:34.667Z,3.00
2018-03-29T02:50:02.175Z,3.00
2018-03-29T02:52:29.712Z,3.00
2018-03-29T02:54:57.967Z,3.00
2018-03-29T02:57:25.453Z,3.00
2018-03-29T02:59:53.711Z,3.00
2018-03-29T03:02:21.202Z,3.00
2018-03-29T03:07:22.495Z,3.00
2018-03-29T03:09:49.989Z,3.00
2018-03-29T03:12:17.462Z,3.00
2018-03-29T03:14:45.740Z,3.00
2018-03-29T03:17:13.975Z,3.00
2018-03-29T03:19:41.449Z,3.00
2018-03-29T03:22:08.911Z,3.00
2018-03-29T03:24:36.402Z,3.00
2018-03-29T03:27:03.921Z,2.90
2018-03-29T03:29:31.389Z,2.80
2018-03-29T03:31:58.853Z,2.80
2018-03-29T03:34:26.324Z,2.80
2018-03-29T03:39:28.367Z,2.90
2018-03-29T03:41:55.848Z,2.90
2018-03-29T03:44:24.112Z,2.90
2018-03-29T03:46:51.589Z,2.90
2018-03-29T03:49:19.063Z,4.10
2018-03-29T03:51:46.560Z,2.90
2018-03-29T03:54:14.041Z,3.00
2018-03-29T03:56:41.566Z,3.00
2018-03-29T03:59:09.076Z,3.10
2018-03-29T04:01:36.547Z,3.10
2018-03-29T04:04:04.024Z,3.00
2018-03-29T04:06:31.502Z,3.00
2018-03-29T04:08:59.744Z,3.10
2018-03-29T04:11:27.212Z,3.10
2018-03-29T04:13:54.712Z,3.10
2018-03-29T04:16:22.173Z,3.10
2018-03-29T04:18:49.641Z,3.00
2018-03-29T04:21:17.896Z,3.00
2018-03-29T04:23:45.391Z,3.00
2018-03-29T04:26:12.870Z,3.10
2018-03-29T04:28:40.386Z,3.00
2018-03-29T04:31:08.640Z,3.00
2018-03-29T04:33:36.127Z,3.00
2018-03-29T04:36:04.382Z,3.10
2018-03-29T04:38:31.863Z,3.00
2018-03-29T04:41:00.122Z,3.10
2018-03-29T04:43:27.614Z,3.10
2018-03-29T04:45:55.073Z,3.10
2018-03-29T04:48:22.570Z,3.10
2018-03-29T04:50:50.057Z,3.10
2018-03-29T04:53:17.566Z,3.10
2018-03-29T04:55:45.028Z,3.10
2018-03-29T04:58:12.496Z,3.10
2018-03-29T05:00:39.970Z,3.10
2018-03-29T05:03:07.444Z,3.10
2018-03-29T05:05:35.695Z,3.10
2018-03-29T05:08:03.164Z,3.00
2018-03-29T05:10:30.676Z,3.10
2018-03-29T05:12:58.153Z,3.10
2018-03-29T05:15:25.622Z,3.10
2018-03-29T05:17:53.102Z,3.10
2018-03-29T05:20:21.363Z,3.00
2018-03-29T05:22:48.850Z,3.00
2018-03-29T05:25:17.115Z,3.00
2018-03-29T05:27:50.167Z,3.00
2018-03-29T05:30:17.670Z,3.00
2018-03-29T05:32:45.912Z,3.00
2018-03-29T05:35:13.402Z,3.00
2018-03-29T05:37:41.667Z,3.00
2018-03-29T05:40:09.153Z,3.00
2018-03-29T05:42:37.403Z,3.00
2018-03-29T05:45:04.871Z,3.00
2018-03-29T05:47:33.132Z,3.00
2018-03-29T05:50:01.419Z,3.00
2018-03-29T05:52:29.674Z,3.10
2018-03-29T05:54:57.145Z,3.10
2018-03-29T05:57:25.413Z,3.10
2018-03-29T05:59:57.700Z,3.10
2018-03-29T06:02:25.187Z,3.20
2018-03-29T06:04:52.662Z,3.20
2018-03-29T06:07:20.116Z,3.20
2018-03-29T06:09:47.666Z,3.20
2018-03-29T06:12:15.887Z,3.30
2018-03-29T06:14:45.175Z,3.30
2018-03-29T06:17:18.388Z,3.30
2018-03-29T06:19:46.643Z,3.30
2018-03-29T06:22:14.126Z,3.30
2018-03-29T06:24:42.372Z,3.40
2018-03-29T06:27:09.860Z,3.40
2018-03-29T06:29:38.112Z,3.50
2018-03-29T06:32:05.607Z,3.40
2018-03-29T06:34:33.125Z,3.50
2018-03-29T06:37:00.597Z,3.60
2018-03-29T06:39:28.091Z,3.60
2018-03-29T06:41:55.556Z,3.70
2018-03-29T06:44:23.046Z,3.70
2018-03-29T06:46:50.523Z,3.70
2018-03-29T06:49:18.024Z,3.70
2018-03-29T06:51:45.558Z,3.80
2018-03-29T06:54:13.036Z,3.80
2018-03-29T06:56:40.516Z,3.90
2018-03-29T06:59:08.003Z,3.90
2018-03-29T07:01:35.487Z,4.20
2018-03-29T07:04:03.743Z,4.80
2018-03-29T07:06:31.238Z,4.80
2018-03-29T07:08:58.751Z,4.90
2018-03-29T07:11:26.222Z,4.60
2018-03-29T07:13:53.719Z,4.50
2018-03-29T07:16:21.209Z,4.30
2018-03-29T07:18:48.697Z,4.20
2018-03-29T07:21:16.193Z,4.30
2018-03-29T07:23:43.689Z,4.30
2018-03-29T07:26:11.179Z,4.40
2018-03-29T07:28:39.446Z,4.40
2018-03-29T07:31:06.893Z,4.30
2018-03-29T07:33:34.390Z,4.20
2018-03-29T07:36:01.922Z,4.20
2018-03-29T07:38:29.405Z,4.20
2018-03-29T07:40:56.921Z,4.40
2018-03-29T07:43:24.398Z,5.10
2018-03-29T07:45:51.896Z,5.40
2018-03-29T07:48:19.366Z,5.20
2018-03-29T07:50:46.862Z,5.00
2018-03-29T07:53:14.372Z,4.80
2018-03-29T07:55:41.897Z,4.60
2018-03-29T07:58:09.413Z,4.80
2018-03-29T08:00:36.919Z,4.80
2018-03-29T08:03:05.174Z,5.00
2018-03-29T08:05:33.445Z,5.00
2018-03-29T08:08:00.926Z,4.90
2018-03-29T08:10:29.187Z,5.10
2018-03-29T08:12:57.426Z,5.20
2018-03-29T08:15:24.899Z,5.20
2018-03-29T08:17:52.397Z,5.40
2018-03-29T08:20:19.883Z,5.80
2018-03-29T08:22:47.388Z,6.20
2018-03-29T08:25:14.858Z,6.20
2018-03-29T08:27:42.343Z,6.00
2018-03-29T08:30:09.836Z,6.20
2018-03-29T08:32:37.310Z,6.40
2018-03-29T08:35:04.790Z,6.40
2018-03-29T08:37:33.053Z,6.90
2018-03-29T08:40:01.291Z,6.90
2018-03-29T08:42:28.768Z,6.80
2018-03-29T08:44:56.233Z,6.90
2018-03-29T08:47:23.714Z,7.00
2018-03-29T08:49:51.946Z,7.20
2018-03-29T08:52:19.414Z,7.10
2018-03-29T08:54:46.927Z,7.30
2018-03-29T08:57:14.410Z,7.70
2018-03-29T08:59:42.674Z,8.30
2018-03-29T09:02:10.149Z,8.30
2018-03-29T09:04:37.605Z,8.60
2018-03-29T09:07:05.113Z,8.40
2018-03-29T09:09:35.663Z,8.10
2018-03-29T09:12:03.160Z,7.60
2018-03-29T09:14:30.631Z,7.30
2018-03-29T09:16:58.078Z,7.20
2018-03-29T09:19:25.583Z,7.00
2018-03-29T09:21:53.812Z,6.40
2018-03-29T09:24:21.322Z,6.40
2018-03-29T09:26:48.805Z,6.20
2018-03-29T09:29:16.293Z,6.20
2018-03-29T09:31:43.795Z,6.50
2018-03-29T09:34:11.276Z,6.70
2018-03-29T09:36:38.768Z,7.00
2018-03-29T09:39:06.218Z,7.40
2018-03-29T09:41:33.724Z,7.80
2018-03-29T09:44:01.957Z,8.70
2018-03-29T09:46:30.195Z,9.00
2018-03-29T09:48:57.692Z,9.00
2018-03-29T09:51:25.166Z,12.10
2018-03-29T09:53:52.667Z,8.20
2018-03-29T09:56:20.210Z,7.80
2018-03-29T09:58:47.709Z,7.40
2018-03-29T10:01:15.217Z,7.10
2018-03-29T10:03:57.883Z,7.00
2018-03-29T10:06:27.539Z,6.90
2018-03-29T10:08:55.386Z,6.90
2018-03-29T10:11:23.053Z,6.90
2018-03-29T10:13:50.547Z,7.10
2018-03-29T10:16:18.033Z,7.10
2018-03-29T10:18:45.518Z,7.00
2018-03-29T10:21:13.030Z,6.80
2018-03-29T10:23:40.530Z,6.70
2018-03-29T10:26:08.789Z,6.60
2018-03-29T10:28:36.278Z,6.50
2018-03-29T10:31:03.804Z,6.60
2018-03-29T10:33:31.284Z,6.70
2018-03-29T10:35:59.549Z,7.30
2018-03-29T10:38:27.823Z,7.60
2018-03-29T10:40:56.055Z,7.90
2018-03-29T10:43:23.560Z,7.90
2018-03-29T10:45:51.052Z,7.80
2018-03-29T10:48:18.540Z,7.60
2018-03-29T10:50:46.030Z,7.60
2018-03-29T10:53:14.279Z,8.90
2018-03-29T10:55:41.781Z,8.90
2018-03-29T10:58:09.255Z,9.00
2018-03-29T11:00:36.735Z,9.40
2018-03-29T11:03:04.223Z,9.30
2018-03-29T11:05:32.019Z,8.90
2018-03-29T11:07:59.511Z,7.60
2018-03-29T11:10:27.004Z,6.90
2018-03-29T11:12:54.472Z,6.90
2018-03-29T11:15:22.752Z,7.00
2018-03-29T11:17:51.014Z,7.00
2018-03-29T11:20:18.504Z,7.00
2018-03-29T11:22:45.965Z,7.00
2018-03-29T11:25:13.462Z,7.40
2018-03-29T11:27:40.967Z,7.70
2018-03-29T11:30:08.449Z,7.90
2018-03-29T11:32:35.938Z,7.90
2018-03-29T11:35:03.435Z,7.50
2018-03-29T11:37:31.687Z,7.20
2018-03-29T11:39:59.232Z,7.30
2018-03-29T11:42:27.513Z,7.50
2018-03-29T11:44:55.077Z,7.50
2018-03-29T11:47:22.535Z,7.20
2018-03-29T11:49:50.047Z,7.20
2018-03-29T11:52:18.005Z,6.90
2018-03-29T11:54:45.511Z,6.50
2018-03-29T11:57:12.985Z,6.20
2018-03-29T11:59:40.468Z,6.20
2018-03-29T12:02:07.940Z,6.10
2018-03-29T12:04:35.420Z,5.70
2018-03-29T12:07:02.898Z,5.70
2018-03-29T12:09:30.396Z,5.90
2018-03-29T12:11:58.650Z,6.00
2018-03-29T12:14:26.153Z,5.90
2018-03-29T12:16:54.411Z,5.70
2018-03-29T12:19:21.889Z,5.70
2018-03-29T12:21:49.376Z,5.90
2018-03-29T12:24:16.859Z,5.90
2018-03-29T12:26:44.883Z,6.10
2018-03-29T12:29:12.371Z,6.40
2018-03-29T12:31:39.845Z,6.90
2018-03-29T12:34:07.348Z,7.50
2018-03-29T12:36:34.822Z,8.00
2018-03-29T12:39:02.303Z,8.60
2018-03-29T12:41:29.812Z,9.30
2018-03-29T12:43:57.276Z,9.50
2018-03-29T12:46:24.908Z,9.20
2018-03-29T12:48:52.369Z,8.90
2018-03-29T12:51:19.840Z,8.80
2018-03-29T12:53:47.316Z,8.70
2018-03-29T12:56:21.637Z,9.00
2018-03-29T12:58:49.152Z,9.10
2018-03-29T13:01:16.627Z,9.00
2018-03-29T13:03:44.091Z,8.60
2018-03-29T13:06:11.572Z,8.50
2018-03-29T13:08:39.065Z,9.10
2018-03-29T13:11:06.539Z,9.70
2018-03-29T13:13:34.801Z,9.50
2018-03-29T13:16:02.269Z,9.40
2018-03-29T13:18:29.736Z,10.10
2018-03-29T13:20:57.207Z,10.90
2018-03-29T13:23:24.682Z,12.00
2018-03-29T13:25:52.159Z,12.20
2018-03-29T13:28:19.660Z,12.50
2018-03-29T13:30:47.943Z,13.30
2018-03-29T13:33:15.362Z,13.30
2018-03-29T13:35:42.888Z,12.50
2018-03-29T13:38:10.388Z,11.50
2018-03-29T13:40:37.891Z,10.90
2018-03-29T13:43:05.385Z,10.40
2018-03-29T13:45:32.862Z,9.80
2018-03-29T13:48:00.313Z,9.30
2018-03-29T13:50:27.810Z,9.20
2018-03-29T13:52:55.292Z,9.10
2018-03-29T13:55:22.759Z,8.90
2018-03-29T13:57:50.239Z,8.80
2018-03-29T14:00:17.739Z,8.80
2018-03-29T14:02:45.206Z,8.70
2018-03-29T14:05:12.697Z,8.70
2018-03-29T14:07:40.204Z,8.90
2018-03-29T14:10:07.672Z,8.60
2018-03-29T14:12:35.165Z,8.60
2018-03-29T14:15:02.635Z,8.70
2018-03-29T14:17:30.126Z,8.90
2018-03-29T14:19:57.649Z,8.80
2018-03-29T14:22:25.129Z,9.40
2018-03-29T14:24:53.378Z,9.10
2018-03-29T14:27:20.877Z,9.10
2018-03-29T14:29:55.616Z,8.80
2018-03-29T14:32:23.068Z,8.80
2018-03-29T14:34:50.551Z,8.70
2018-03-29T14:37:18.021Z,8.60
2018-03-29T14:39:45.501Z,8.70
2018-03-29T14:42:12.983Z,10.10
2018-03-29T14:44:40.487Z,12.60
2018-03-29T14:47:08.111Z,13.30
2018-03-29T14:49:35.595Z,13.40
2018-03-29T14:52:03.092Z,14.50
2018-03-29T14:54:30.579Z,14.10
2018-03-29T14:56:58.833Z,13.60
2018-03-29T14:59:26.330Z,13.50
2018-03-29T15:01:53.804Z,14.20
2018-03-29T15:04:21.310Z,14.10
2018-03-29T15:06:48.772Z,14.20
2018-03-29T15:09:17.027Z,15.30
2018-03-29T15:11:44.542Z,15.30
2018-03-29T15:14:12.788Z,15.20
2018-03-29T15:16:40.269Z,15.10
2018-03-29T15:19:07.718Z,15.10
2018-03-29T15:21:35.223Z,14.70
2018-03-29T15:24:02.717Z,14.20
2018-03-29T15:26:30.240Z,13.80
2018-03-29T15:28:57.742Z,13.20
2018-03-29T15:31:25.285Z,13.30
2018-03-29T15:33:52.754Z,14.00
2018-03-29T15:36:21.006Z,14.00
2018-03-29T15:38:48.512Z,13.90
2018-03-29T15:41:16.000Z,12.10
2018-03-29T15:43:43.467Z,10.60
2018-03-29T15:46:10.952Z,9.80
2018-03-29T15:48:38.416Z,9.60
2018-03-29T15:51:05.894Z,9.90
2018-03-29T15:53:33.384Z,11.10
2018-03-29T15:56:00.874Z,13.00
2018-03-29T15:58:28.355Z,14.40
2018-03-29T16:00:56.607Z,14.60
2018-03-29T16:03:24.086Z,14.60
2018-03-29T16:05:52.346Z,15.20
2018-03-29T16:08:20.581Z,15.20
2018-03-29T16:10:48.074Z,15.20
2018-03-29T16:13:15.565Z,14.60
2018-03-29T16:15:43.029Z,15.30
2018-03-29T16:18:10.501Z,14.80
2018-03-29T16:20:37.977Z,14.20
2018-03-29T16:23:05.435Z,14.60
2018-03-29T16:25:32.960Z,15.40
2018-03-29T16:28:00.436Z,15.80
2018-03-29T16:30:27.904Z,15.20
2018-03-29T16:32:55.404Z,15.90
2018-03-29T16:35:22.879Z,15.80
2018-03-29T16:37:50.393Z,15.60
2018-03-29T16:40:18.655Z,13.90
2018-03-29T16:42:46.120Z,13.90
2018-03-29T16:45:13.597Z,13.60
2018-03-29T16:47:41.109Z,13.40
2018-03-29T16:50:08.582Z,13.10
2018-03-29T16:52:36.073Z,13.10
2018-03-29T16:55:04.380Z,13.10
2018-03-29T16:57:31.860Z,12.60
2018-03-29T16:59:59.363Z,12.70
2018-03-29T17:02:26.832Z,12.50
2018-03-29T17:04:55.087Z,12.70
2018-03-29T17:07:22.564Z,12.70
2018-03-29T17:09:50.814Z,11.80
2018-03-29T17:12:18.291Z,11.70
2018-03-29T17:14:46.545Z,10.10
2018-03-29T17:17:14.035Z,10.00
2018-03-29T17:19:42.270Z,8.80
2018-03-29T17:22:10.632Z,8.60
2018-03-29T17:24:38.109Z,8.50
2018-03-29T17:27:05.595Z,8.20
2018-03-29T17:29:33.092Z,8.10
2018-03-29T17:32:00.541Z,8.00
2018-03-29T17:34:28.044Z,7.90
2018-03-29T17:36:55.512Z,7.80
2018-03-29T17:39:22.986Z,7.60
2018-03-29T17:41:51.245Z,7.40
2018-03-29T17:44:18.712Z,7.40
2018-03-29T17:46:46.958Z,7.20
2018-03-29T17:49:14.415Z,7.20
2018-03-29T17:51:41.891Z,7.20
2018-03-29T17:54:09.400Z,7.00
2018-03-29T17:56:36.864Z,6.90
2018-03-29T17:59:04.347Z,6.90
2018-03-29T18:01:31.825Z,6.90
2018-03-29T18:03:59.280Z,6.80
2018-03-29T18:06:27.542Z,6.60
2018-03-29T18:08:55.032Z,6.60
2018-03-29T18:11:23.281Z,6.50
2018-03-29T18:13:50.758Z,6.50
2018-03-29T18:16:19.023Z,6.30
2018-03-29T18:18:47.325Z,6.30
2018-03-29T18:21:15.639Z,6.20
2018-03-29T18:23:43.106Z,6.20
2018-03-29T18:26:11.671Z,6.10
2018-03-29T18:28:39.168Z,6.10
2018-03-29T18:31:06.684Z,6.10
2018-03-29T18:33:34.270Z,6.00
2018-03-29T18:36:02.566Z,5.80
2018-03-29T18:38:30.377Z,5.80
2018-03-29T18:40:57.849Z,5.80
2018-03-29T18:43:25.377Z,5.80
2018-03-29T18:45:55.805Z,5.70
2018-03-29T18:48:23.292Z,5.70
2018-03-29T18:50:50.779Z,5.60
2018-03-29T18:53:18.273Z,5.60
2018-03-29T18:55:45.775Z,5.70
2018-03-29T18:58:13.685Z,5.60
2018-03-29T19:00:41.178Z,5.60
2018-03-29T19:03:08.688Z,5.60
2018-03-29T19:05:37.385Z,5.50
2018-03-29T19:08:04.871Z,5.50
2018-03-29T19:10:32.373Z,5.40
2018-03-29T19:13:01.589Z,5.30
2018-03-29T19:15:29.892Z,5.10
2018-03-29T19:17:57.443Z,5.20
2018-03-29T19:20:25.699Z,5.10
2018-03-29T19:22:53.201Z,5.10
2018-03-29T19:25:20.727Z,5.00
2018-03-29T19:27:48.988Z,5.10
2018-03-29T19:30:16.456Z,5.10
2018-03-29T19:32:44.705Z,5.00
2018-03-29T19:35:12.203Z,5.00
2018-03-29T19:37:40.440Z,4.90
2018-03-29T19:40:08.183Z,4.90
2018-03-29T19:42:35.702Z,4.90
2018-03-29T19:45:03.160Z,4.90
2018-03-29T19:47:30.647Z,4.80
2018-03-29T19:49:58.123Z,4.80
2018-03-29T19:52:26.425Z,4.50
2018-03-29T19:54:54.746Z,4.30
2018-03-29T19:57:22.276Z,4.30
2018-03-29T19:59:50.614Z,4.00
2018-03-29T20:02:18.123Z,4.00
2018-03-29T20:04:46.378Z,3.60
2018-03-29T20:07:13.859Z,3.60
2018-03-29T20:09:41.341Z,3.50
2018-03-29T20:12:08.865Z,3.30
2018-03-29T20:14:36.327Z,3.30
2018-03-29T20:17:11.593Z,3.10
2018-03-29T20:19:39.159Z,3.10
2018-03-29T20:22:06.631Z,3.10
2018-03-29T20:24:34.133Z,3.10
2018-03-29T20:27:02.398Z,3.20
2018-03-29T20:29:29.914Z,3.30
2018-03-29T20:31:57.394Z,3.30
2018-03-29T20:34:24.870Z,3.20
2018-03-29T20:36:52.373Z,3.20
2018-03-29T20:39:19.864Z,3.20
2018-03-29T20:41:47.389Z,3.20
2018-03-29T20:44:14.865Z,3.10
2018-03-29T20:46:42.374Z,3.00
2018-03-29T20:49:10.629Z,2.80
2018-03-29T20:51:38.126Z,2.80
2018-03-29T20:54:05.619Z,2.90
2018-03-29T20:56:33.752Z,3.00
2018-03-29T20:59:01.206Z,3.10
2018-03-29T21:01:28.703Z,3.20
2018-03-29T21:03:56.195Z,3.20
2018-03-29T21:06:23.668Z,3.20
2018-03-29T21:08:51.134Z,3.10
2018-03-29T21:11:18.633Z,3.00
2018-03-29T21:13:46.139Z,2.90
2018-03-29T21:16:20.621Z,2.80
2018-03-29T21:18:48.864Z,2.60
2018-03-29T21:21:16.326Z,2.50
2018-03-29T21:23:43.800Z,2.40
2018-03-29T21:26:11.312Z,2.30
2018-03-29T21:28:41.210Z,2.20
2018-03-29T21:31:08.722Z,2.20
2018-03-29T21:33:36.261Z,2.10
2018-03-29T21:36:03.739Z,2.10
2018-03-29T21:38:31.262Z,2.20
2018-03-29T21:40:58.756Z,2.30
2018-03-29T21:43:26.330Z,2.30
2018-03-29T21:45:53.840Z,2.20
2018-03-29T21:48:21.345Z,2.20
2018-03-29T21:50:48.887Z,2.10
2018-03-29T21:53:17.383Z,2.00
2018-03-29T21:55:44.869Z,2.00
2018-03-29T21:58:13.124Z,2.00
2018-03-29T22:00:40.610Z,1.90
2018-03-29T22:03:08.335Z,2.00
2018-03-29T22:05:48.474Z,2.00
2018-03-29T22:10:50.920Z,1.90
2018-03-29T22:13:18.456Z,1.90
2018-03-29T22:15:45.937Z,1.80
2018-03-29T22:18:13.704Z,2.00
2018-03-29T22:20:46.895Z,1.70
2018-03-29T22:23:14.455Z,2.00
2018-03-29T22:25:42.015Z,1.60
2018-03-29T22:28:09.909Z,1.60
2018-03-29T22:30:37.434Z,1.50
2018-03-29T22:33:05.764Z,1.50
2018-03-29T22:35:33.279Z,1.50
2018-03-29T22:38:00.836Z,1.50
2018-03-29T22:40:28.362Z,1.40
2018-03-29T22:42:55.868Z,1.40
2018-03-29T22:45:23.416Z,1.50
2018-03-29T22:47:50.922Z,1.60
2018-03-29T22:50:18.426Z,1.60
2018-03-29T22:52:46.975Z,1.70
2018-03-29T22:55:16.577Z,1.70
2018-03-29T22:57:47.331Z,1.70
2018-03-29T23:00:16.499Z,1.80
2018-03-29T23:02:48.052Z,1.80
2018-03-29T23:08:09.474Z,1.70
2018-03-29T23:10:37.807Z,1.70
2018-03-29T23:13:05.383Z,1.70
2018-03-29T23:15:38.311Z,1.50
2018-03-29T23:18:06.076Z,1.40
2018-03-29T23:23:10.115Z,1.40
2018-03-29T23:26:02.672Z,1.40
2018-03-29T23:42:53.954Z,1.50
2018-03-29T23:48:59.150Z,1.30
2018-03-29T23:57:21.564Z,1.40
2018-03-29T23:59:51.842Z,1.50
